sensor_id;sensor_type;location;lat;lon;timestamp;temperature;humidity
13148;DHT22;6639;50.956;4.242;2022-12-18T00:02:04;4.90;87.10
13148;DHT22;6639;50.956;4.242;2022-12-18T00:04:31;4.70;87.50
13148;DHT22;6639;50.956;4.242;2022-12-18T00:06:58;4.80;87.50
13148;DHT22;6639;50.956;4.242;2022-12-18T00:09:25;5.00;87.50
13148;DHT22;6639;50.956;4.242;2022-12-18T00:11:52;5.00;87.40
13148;DHT22;6639;50.956;4.242;2022-12-18T00:14:19;5.00;87.10
13148;DHT22;6639;50.956;4.242;2022-12-18T00:16:47;4.90;86.80
13148;DHT22;6639;50.956;4.242;2022-12-18T00:19:14;4.60;86.70
13148;DHT22;6639;50.956;4.242;2022-12-18T00:21:42;4.70;87.50
13148;DHT22;6639;50.956;4.242;2022-12-18T00:24:10;4.70;87.40
13148;DHT22;6639;50.956;4.242;2022-12-18T00:26:38;4.60;87.60
13148;DHT22;6639;50.956;4.242;2022-12-18T00:29:07;4.60;87.60
13148;DHT22;6639;50.956;4.242;2022-12-18T00:31:36;4.80;87.20
13148;DHT22;6639;50.956;4.242;2022-12-18T00:34:04;4.80;86.90
13148;DHT22;6639;50.956;4.242;2022-12-18T00:36:33;5.00;86.70
13148;DHT22;6639;50.956;4.242;2022-12-18T00:39:02;4.90;86.50
13148;DHT22;6639;50.956;4.242;2022-12-18T00:41:30;4.90;86.50
13148;DHT22;6639;50.956;4.242;2022-12-18T00:44:16;4.90;86.60
13148;DHT22;6639;50.956;4.242;2022-12-18T00:46:44;4.90;86.60
13148;DHT22;6639;50.956;4.242;2022-12-18T00:49:13;4.90;86.50
13148;DHT22;6639;50.956;4.242;2022-12-18T00:51:40;4.90;85.60
13148;DHT22;6639;50.956;4.242;2022-12-18T00:54:07;4.90;85.80
13148;DHT22;6639;50.956;4.242;2022-12-18T00:56:35;4.80;85.20
13148;DHT22;6639;50.956;4.242;2022-12-18T00:59:03;4.90;85.20
13148;DHT22;6639;50.956;4.242;2022-12-18T01:01:30;4.90;85.00
13148;DHT22;6639;50.956;4.242;2022-12-18T01:03:58;4.80;84.70
13148;DHT22;6639;50.956;4.242;2022-12-18T01:06:27;4.80;84.40
13148;DHT22;6639;50.956;4.242;2022-12-18T01:08:54;4.80;83.50
13148;DHT22;6639;50.956;4.242;2022-12-18T01:11:21;4.70;84.00
13148;DHT22;6639;50.956;4.242;2022-12-18T01:13:48;4.50;84.40
13148;DHT22;6639;50.956;4.242;2022-12-18T01:16:16;4.50;84.20
13148;DHT22;6639;50.956;4.242;2022-12-18T01:18:43;4.50;83.90
13148;DHT22;6639;50.956;4.242;2022-12-18T01:21:16;4.40;83.60
13148;DHT22;6639;50.956;4.242;2022-12-18T01:23:44;4.30;83.80
13148;DHT22;6639;50.956;4.242;2022-12-18T01:26:14;4.30;83.60
13148;DHT22;6639;50.956;4.242;2022-12-18T01:28:41;4.20;84.50
13148;DHT22;6639;50.956;4.242;2022-12-18T01:31:11;4.30;84.00
13148;DHT22;6639;50.956;4.242;2022-12-18T01:33:38;4.40;83.70
13148;DHT22;6639;50.956;4.242;2022-12-18T01:36:05;4.50;83.50
13148;DHT22;6639;50.956;4.242;2022-12-18T01:38:32;4.30;83.20
13148;DHT22;6639;50.956;4.242;2022-12-18T01:41:01;4.30;83.90
13148;DHT22;6639;50.956;4.242;2022-12-18T01:43:45;4.10;84.00
13148;DHT22;6639;50.956;4.242;2022-12-18T01:46:13;4.30;83.90
13148;DHT22;6639;50.956;4.242;2022-12-18T01:48:40;4.30;83.50
13148;DHT22;6639;50.956;4.242;2022-12-18T01:51:09;4.20;83.60
13148;DHT22;6639;50.956;4.242;2022-12-18T01:53:37;4.20;83.50
13148;DHT22;6639;50.956;4.242;2022-12-18T01:56:08;4.20;83.40
13148;DHT22;6639;50.956;4.242;2022-12-18T01:58:41;4.30;83.00
13148;DHT22;6639;50.956;4.242;2022-12-18T02:01:11;4.10;83.00
13148;DHT22;6639;50.956;4.242;2022-12-18T02:03:41;4.10;83.10
13148;DHT22;6639;50.956;4.242;2022-12-18T02:06:12;4.20;82.80
13148;DHT22;6639;50.956;4.242;2022-12-18T02:08:43;4.10;82.20
13148;DHT22;6639;50.956;4.242;2022-12-18T02:11:17;4.10;82.20
13148;DHT22;6639;50.956;4.242;2022-12-18T02:13:52;4.00;82.00
13148;DHT22;6639;50.956;4.242;2022-12-18T02:16:24;4.00;81.90
13148;DHT22;6639;50.956;4.242;2022-12-18T02:18:57;4.00;81.70
13148;DHT22;6639;50.956;4.242;2022-12-18T02:21:31;3.90;81.70
13148;DHT22;6639;50.956;4.242;2022-12-18T02:24:13;3.80;81.90
13148;DHT22;6639;50.956;4.242;2022-12-18T02:26:46;3.70;82.00
13148;DHT22;6639;50.956;4.242;2022-12-18T02:29:17;3.70;81.70
13148;DHT22;6639;50.956;4.242;2022-12-18T02:31:51;3.70;81.90
13148;DHT22;6639;50.956;4.242;2022-12-18T02:34:21;3.80;81.80
13148;DHT22;6639;50.956;4.242;2022-12-18T02:36:49;3.80;81.60
13148;DHT22;6639;50.956;4.242;2022-12-18T02:39:18;3.70;81.70
13148;DHT22;6639;50.956;4.242;2022-12-18T02:41:48;3.90;81.90
13148;DHT22;6639;50.956;4.242;2022-12-18T02:44:15;3.80;81.80
13148;DHT22;6639;50.956;4.242;2022-12-18T02:46:43;3.80;81.90
13148;DHT22;6639;50.956;4.242;2022-12-18T02:49:26;3.70;82.20
13148;DHT22;6639;50.956;4.242;2022-12-18T02:52:01;3.70;83.00
13148;DHT22;6639;50.956;4.242;2022-12-18T02:54:50;3.40;82.80
13148;DHT22;6639;50.956;4.242;2022-12-18T02:57:24;3.40;83.20
13148;DHT22;6639;50.956;4.242;2022-12-18T02:59:59;3.50;83.50
13148;DHT22;6639;50.956;4.242;2022-12-18T03:02:35;3.60;83.10
13148;DHT22;6639;50.956;4.242;2022-12-18T03:05:10;3.60;82.70
13148;DHT22;6639;50.956;4.242;2022-12-18T03:07:42;3.70;82.80
13148;DHT22;6639;50.956;4.242;2022-12-18T03:10:14;3.50;83.00
13148;DHT22;6639;50.956;4.242;2022-12-18T03:12:48;3.00;83.40
13148;DHT22;6639;50.956;4.242;2022-12-18T03:15:21;2.90;85.60
13148;DHT22;6639;50.956;4.242;2022-12-18T03:17:55;2.80;85.80
13148;DHT22;6639;50.956;4.242;2022-12-18T03:20:25;2.40;86.90
13148;DHT22;6639;50.956;4.242;2022-12-18T03:22:59;2.40;87.90
13148;DHT22;6639;50.956;4.242;2022-12-18T03:25:31;2.30;88.10
13148;DHT22;6639;50.956;4.242;2022-12-18T03:28:01;2.40;88.70
13148;DHT22;6639;50.956;4.242;2022-12-18T03:30:30;2.80;88.00
13148;DHT22;6639;50.956;4.242;2022-12-18T03:33:04;2.80;87.30
13148;DHT22;6639;50.956;4.242;2022-12-18T03:35:36;3.00;87.20
13148;DHT22;6639;50.956;4.242;2022-12-18T03:38:04;3.00;86.80
13148;DHT22;6639;50.956;4.242;2022-12-18T03:40:37;3.00;86.70
13148;DHT22;6639;50.956;4.242;2022-12-18T03:43:11;2.70;86.90
13148;DHT22;6639;50.956;4.242;2022-12-18T03:45:44;3.00;87.20
13148;DHT22;6639;50.956;4.242;2022-12-18T03:48:19;3.20;86.50
13148;DHT22;6639;50.956;4.242;2022-12-18T03:50:53;3.30;86.30
13148;DHT22;6639;50.956;4.242;2022-12-18T03:53:27;3.30;85.90
13148;DHT22;6639;50.956;4.242;2022-12-18T03:55:56;3.20;85.50
13148;DHT22;6639;50.956;4.242;2022-12-18T03:58:27;2.90;87.10
13148;DHT22;6639;50.956;4.242;2022-12-18T04:00:57;2.50;88.20
13148;DHT22;6639;50.956;4.242;2022-12-18T04:03:28;2.00;89.70
13148;DHT22;6639;50.956;4.242;2022-12-18T04:05:57;1.70;90.60
13148;DHT22;6639;50.956;4.242;2022-12-18T04:08:25;2.00;91.00
13148;DHT22;6639;50.956;4.242;2022-12-18T04:10:53;2.40;90.60
13148;DHT22;6639;50.956;4.242;2022-12-18T04:13:23;2.20;90.50
13148;DHT22;6639;50.956;4.242;2022-12-18T04:15:51;2.20;90.70
13148;DHT22;6639;50.956;4.242;2022-12-18T04:18:18;2.50;90.60
13148;DHT22;6639;50.956;4.242;2022-12-18T04:20:45;2.80;90.10
13148;DHT22;6639;50.956;4.242;2022-12-18T04:23:12;3.00;89.40
13148;DHT22;6639;50.956;4.242;2022-12-18T04:25:39;3.10;88.30
13148;DHT22;6639;50.956;4.242;2022-12-18T04:28:06;3.20;88.40
13148;DHT22;6639;50.956;4.242;2022-12-18T04:30:33;3.10;87.80
13148;DHT22;6639;50.956;4.242;2022-12-18T04:33:01;3.30;87.10
13148;DHT22;6639;50.956;4.242;2022-12-18T04:35:28;3.40;86.10
13148;DHT22;6639;50.956;4.242;2022-12-18T04:37:55;3.10;84.70
13148;DHT22;6639;50.956;4.242;2022-12-18T04:40:22;3.20;85.20
13148;DHT22;6639;50.956;4.242;2022-12-18T04:42:49;3.30;85.00
13148;DHT22;6639;50.956;4.242;2022-12-18T04:45:16;3.30;85.00
13148;DHT22;6639;50.956;4.242;2022-12-18T04:47:43;3.40;84.80
13148;DHT22;6639;50.956;4.242;2022-12-18T04:50:11;3.40;84.40
13148;DHT22;6639;50.956;4.242;2022-12-18T04:52:38;3.50;84.10
13148;DHT22;6639;50.956;4.242;2022-12-18T04:55:05;3.40;83.30
13148;DHT22;6639;50.956;4.242;2022-12-18T04:57:32;3.30;83.50
13148;DHT22;6639;50.956;4.242;2022-12-18T04:59:59;3.20;83.70
13148;DHT22;6639;50.956;4.242;2022-12-18T05:02:26;3.30;83.70
13148;DHT22;6639;50.956;4.242;2022-12-18T05:04:53;3.40;83.60
13148;DHT22;6639;50.956;4.242;2022-12-18T05:07:21;3.30;83.40
13148;DHT22;6639;50.956;4.242;2022-12-18T05:09:48;3.20;83.00
13148;DHT22;6639;50.956;4.242;2022-12-18T05:12:15;3.10;82.90
13148;DHT22;6639;50.956;4.242;2022-12-18T05:14:42;3.20;83.00
13148;DHT22;6639;50.956;4.242;2022-12-18T05:17:09;3.20;82.60
13148;DHT22;6639;50.956;4.242;2022-12-18T05:19:35;3.20;82.80
13148;DHT22;6639;50.956;4.242;2022-12-18T05:22:04;3.30;83.00
13148;DHT22;6639;50.956;4.242;2022-12-18T05:24:32;3.30;82.80
13148;DHT22;6639;50.956;4.242;2022-12-18T05:26:59;3.40;82.50
13148;DHT22;6639;50.956;4.242;2022-12-18T05:29:26;3.30;82.40
13148;DHT22;6639;50.956;4.242;2022-12-18T05:31:53;3.30;82.30
13148;DHT22;6639;50.956;4.242;2022-12-18T05:34:20;3.30;82.40
13148;DHT22;6639;50.956;4.242;2022-12-18T05:36:46;3.20;83.20
13148;DHT22;6639;50.956;4.242;2022-12-18T05:39:13;3.30;82.40
13148;DHT22;6639;50.956;4.242;2022-12-18T05:41:42;3.30;82.40
13148;DHT22;6639;50.956;4.242;2022-12-18T05:44:09;3.10;83.20
13148;DHT22;6639;50.956;4.242;2022-12-18T05:46:36;3.00;83.70
13148;DHT22;6639;50.956;4.242;2022-12-18T05:49:03;3.00;84.30
13148;DHT22;6639;50.956;4.242;2022-12-18T05:51:30;2.80;85.00
13148;DHT22;6639;50.956;4.242;2022-12-18T05:53:56;2.60;86.30
13148;DHT22;6639;50.956;4.242;2022-12-18T05:56:23;2.80;85.80
13148;DHT22;6639;50.956;4.242;2022-12-18T05:58:53;3.00;84.70
13148;DHT22;6639;50.956;4.242;2022-12-18T06:01:22;3.10;83.90
13148;DHT22;6639;50.956;4.242;2022-12-18T06:03:50;3.10;84.10
13148;DHT22;6639;50.956;4.242;2022-12-18T06:06:18;3.10;83.50
13148;DHT22;6639;50.956;4.242;2022-12-18T06:08:45;3.10;83.30
13148;DHT22;6639;50.956;4.242;2022-12-18T06:11:15;3.00;83.20
13148;DHT22;6639;50.956;4.242;2022-12-18T06:13:42;3.00;83.20
13148;DHT22;6639;50.956;4.242;2022-12-18T06:16:10;3.00;83.20
13148;DHT22;6639;50.956;4.242;2022-12-18T06:18:38;3.10;82.90
13148;DHT22;6639;50.956;4.242;2022-12-18T06:21:05;3.10;82.50
13148;DHT22;6639;50.956;4.242;2022-12-18T06:23:32;3.00;82.70
13148;DHT22;6639;50.956;4.242;2022-12-18T06:26:02;3.00;82.70
13148;DHT22;6639;50.956;4.242;2022-12-18T06:28:29;3.10;82.80
13148;DHT22;6639;50.956;4.242;2022-12-18T06:30:56;3.20;82.70
13148;DHT22;6639;50.956;4.242;2022-12-18T06:33:26;3.20;82.70
13148;DHT22;6639;50.956;4.242;2022-12-18T06:35:53;3.10;83.30
13148;DHT22;6639;50.956;4.242;2022-12-18T06:38:20;3.00;83.40
13148;DHT22;6639;50.956;4.242;2022-12-18T06:40:46;2.90;83.60
13148;DHT22;6639;50.956;4.242;2022-12-18T06:43:13;2.90;84.00
13148;DHT22;6639;50.956;4.242;2022-12-18T06:45:40;3.00;83.80
13148;DHT22;6639;50.956;4.242;2022-12-18T06:48:07;3.10;83.80
13148;DHT22;6639;50.956;4.242;2022-12-18T06:50:35;3.10;83.30
13148;DHT22;6639;50.956;4.242;2022-12-18T06:53:02;2.90;83.40
13148;DHT22;6639;50.956;4.242;2022-12-18T06:55:29;3.00;84.00
13148;DHT22;6639;50.956;4.242;2022-12-18T06:57:56;3.10;84.00
13148;DHT22;6639;50.956;4.242;2022-12-18T07:00:23;3.20;83.60
13148;DHT22;6639;50.956;4.242;2022-12-18T07:02:50;3.10;83.30
13148;DHT22;6639;50.956;4.242;2022-12-18T07:05:17;3.10;83.30
13148;DHT22;6639;50.956;4.242;2022-12-18T07:07:45;2.80;84.20
13148;DHT22;6639;50.956;4.242;2022-12-18T07:10:12;2.90;84.60
13148;DHT22;6639;50.956;4.242;2022-12-18T07:12:39;2.90;84.90
13148;DHT22;6639;50.956;4.242;2022-12-18T07:15:07;2.80;85.60
13148;DHT22;6639;50.956;4.242;2022-12-18T07:17:34;2.80;85.50
13148;DHT22;6639;50.956;4.242;2022-12-18T07:20:01;2.50;85.50
13148;DHT22;6639;50.956;4.242;2022-12-18T07:22:28;2.20;85.70
13148;DHT22;6639;50.956;4.242;2022-12-18T07:24:57;2.40;87.10
13148;DHT22;6639;50.956;4.242;2022-12-18T07:27:24;2.40;86.50
13148;DHT22;6639;50.956;4.242;2022-12-18T07:29:51;2.20;86.70
13148;DHT22;6639;50.956;4.242;2022-12-18T07:32:18;2.30;87.30
13148;DHT22;6639;50.956;4.242;2022-12-18T07:34:44;2.70;86.90
13148;DHT22;6639;50.956;4.242;2022-12-18T07:37:11;2.70;86.30
13148;DHT22;6639;50.956;4.242;2022-12-18T07:39:38;2.80;86.00
13148;DHT22;6639;50.956;4.242;2022-12-18T07:42:06;2.80;86.20
13148;DHT22;6639;50.956;4.242;2022-12-18T07:44:51;2.90;86.30
13148;DHT22;6639;50.956;4.242;2022-12-18T07:47:18;2.70;86.00
13148;DHT22;6639;50.956;4.242;2022-12-18T07:49:44;2.70;85.70
13148;DHT22;6639;50.956;4.242;2022-12-18T07:52:11;2.10;85.60
13148;DHT22;6639;50.956;4.242;2022-12-18T07:54:39;1.80;87.50
13148;DHT22;6639;50.956;4.242;2022-12-18T07:57:07;1.60;89.50
13148;DHT22;6639;50.956;4.242;2022-12-18T07:59:35;1.80;89.90
13148;DHT22;6639;50.956;4.242;2022-12-18T08:02:02;2.00;89.90
13148;DHT22;6639;50.956;4.242;2022-12-18T08:04:29;2.00;89.80
13148;DHT22;6639;50.956;4.242;2022-12-18T08:06:56;2.20;89.20
13148;DHT22;6639;50.956;4.242;2022-12-18T08:09:22;2.40;89.50
13148;DHT22;6639;50.956;4.242;2022-12-18T08:11:49;1.90;88.90
13148;DHT22;6639;50.956;4.242;2022-12-18T08:14:18;1.90;90.10
13148;DHT22;6639;50.956;4.242;2022-12-18T08:16:44;2.00;90.30
13148;DHT22;6639;50.956;4.242;2022-12-18T08:19:11;2.00;90.20
13148;DHT22;6639;50.956;4.242;2022-12-18T08:21:38;1.20;91.30
13148;DHT22;6639;50.956;4.242;2022-12-18T08:24:06;1.00;93.10
13148;DHT22;6639;50.956;4.242;2022-12-18T08:26:33;1.20;93.50
13148;DHT22;6639;50.956;4.242;2022-12-18T08:29:00;1.40;93.80
13148;DHT22;6639;50.956;4.242;2022-12-18T08:31:29;1.60;93.70
13148;DHT22;6639;50.956;4.242;2022-12-18T08:33:57;2.00;93.40
13148;DHT22;6639;50.956;4.242;2022-12-18T08:36:24;1.60;93.50
13148;DHT22;6639;50.956;4.242;2022-12-18T08:38:51;1.30;94.40
13148;DHT22;6639;50.956;4.242;2022-12-18T08:41:18;1.50;95.20
13148;DHT22;6639;50.956;4.242;2022-12-18T08:43:45;1.20;95.40
13148;DHT22;6639;50.956;4.242;2022-12-18T08:46:35;1.00;96.20
13148;DHT22;6639;50.956;4.242;2022-12-18T08:49:03;1.50;96.50
13148;DHT22;6639;50.956;4.242;2022-12-18T08:51:30;1.80;95.60
13148;DHT22;6639;50.956;4.242;2022-12-18T08:53:57;1.20;96.10
13148;DHT22;6639;50.956;4.242;2022-12-18T08:56:24;1.40;97.20
13148;DHT22;6639;50.956;4.242;2022-12-18T08:58:52;1.50;97.80
13148;DHT22;6639;50.956;4.242;2022-12-18T09:01:20;1.20;97.20
13148;DHT22;6639;50.956;4.242;2022-12-18T09:03:48;1.50;98.20
13148;DHT22;6639;50.956;4.242;2022-12-18T09:06:17;2.20;98.70
13148;DHT22;6639;50.956;4.242;2022-12-18T09:08:44;2.80;96.80
13148;DHT22;6639;50.956;4.242;2022-12-18T09:11:17;2.80;96.10
13148;DHT22;6639;50.956;4.242;2022-12-18T09:13:46;3.10;96.10
13148;DHT22;6639;50.956;4.242;2022-12-18T09:16:13;3.90;95.40
13148;DHT22;6639;50.956;4.242;2022-12-18T09:18:39;3.90;94.60
13148;DHT22;6639;50.956;4.242;2022-12-18T09:21:12;4.10;94.30
13148;DHT22;6639;50.956;4.242;2022-12-18T09:23:40;4.10;93.70
13148;DHT22;6639;50.956;4.242;2022-12-18T09:26:07;3.40;94.50
13148;DHT22;6639;50.956;4.242;2022-12-18T09:28:34;3.50;95.10
13148;DHT22;6639;50.956;4.242;2022-12-18T09:31:04;4.00;95.10
13148;DHT22;6639;50.956;4.242;2022-12-18T09:33:32;4.40;94.40
13148;DHT22;6639;50.956;4.242;2022-12-18T09:36:01;3.40;93.80
13148;DHT22;6639;50.956;4.242;2022-12-18T09:38:29;3.20;96.30
13148;DHT22;6639;50.956;4.242;2022-12-18T09:40:59;2.70;97.00
13148;DHT22;6639;50.956;4.242;2022-12-18T09:43:29;2.90;97.90
13148;DHT22;6639;50.956;4.242;2022-12-18T09:46:01;3.30;97.50
13148;DHT22;6639;50.956;4.242;2022-12-18T09:48:32;3.30;97.10
13148;DHT22;6639;50.956;4.242;2022-12-18T09:51:03;3.40;96.50
13148;DHT22;6639;50.956;4.242;2022-12-18T09:53:35;4.00;97.20
13148;DHT22;6639;50.956;4.242;2022-12-18T09:56:05;4.40;96.30
13148;DHT22;6639;50.956;4.242;2022-12-18T09:58:37;4.40;96.60
13148;DHT22;6639;50.956;4.242;2022-12-18T10:01:10;4.90;95.90
13148;DHT22;6639;50.956;4.242;2022-12-18T10:03:37;5.00;95.50
13148;DHT22;6639;50.956;4.242;2022-12-18T10:06:08;4.60;95.50
13148;DHT22;6639;50.956;4.242;2022-12-18T10:08:46;5.00;95.80
13148;DHT22;6639;50.956;4.242;2022-12-18T10:11:28;5.00;95.40
13148;DHT22;6639;50.956;4.242;2022-12-18T10:14:03;4.80;95.80
13148;DHT22;6639;50.956;4.242;2022-12-18T10:16:38;4.70;95.70
13148;DHT22;6639;50.956;4.242;2022-12-18T10:19:18;5.00;96.10
13148;DHT22;6639;50.956;4.242;2022-12-18T10:21:54;5.30;95.50
13148;DHT22;6639;50.956;4.242;2022-12-18T10:24:28;4.90;95.30
13148;DHT22;6639;50.956;4.242;2022-12-18T10:27:09;5.00;95.60
13148;DHT22;6639;50.956;4.242;2022-12-18T10:29:38;5.40;95.60
13148;DHT22;6639;50.956;4.242;2022-12-18T10:32:05;4.50;96.20
13148;DHT22;6639;50.956;4.242;2022-12-18T10:34:31;4.60;96.70
13148;DHT22;6639;50.956;4.242;2022-12-18T10:37:01;4.50;96.50
13148;DHT22;6639;50.956;4.242;2022-12-18T10:39:32;5.10;97.10
13148;DHT22;6639;50.956;4.242;2022-12-18T10:42:10;5.40;96.50
13148;DHT22;6639;50.956;4.242;2022-12-18T10:44:38;5.50;96.30
13148;DHT22;6639;50.956;4.242;2022-12-18T10:47:12;5.50;96.30
13148;DHT22;6639;50.956;4.242;2022-12-18T10:49:46;5.80;96.00
13148;DHT22;6639;50.956;4.242;2022-12-18T10:52:17;6.00;95.80
13148;DHT22;6639;50.956;4.242;2022-12-18T10:54:51;6.30;95.60
13148;DHT22;6639;50.956;4.242;2022-12-18T10:57:31;6.60;95.30
13148;DHT22;6639;50.956;4.242;2022-12-18T10:59:59;6.30;95.40
13148;DHT22;6639;50.956;4.242;2022-12-18T11:02:34;6.40;95.60
13148;DHT22;6639;50.956;4.242;2022-12-18T11:05:02;6.70;95.80
13148;DHT22;6639;50.956;4.242;2022-12-18T11:07:47;6.90;95.40
13148;DHT22;6639;50.956;4.242;2022-12-18T11:10:19;7.10;95.10
13148;DHT22;6639;50.956;4.242;2022-12-18T11:12:47;7.10;94.70
13148;DHT22;6639;50.956;4.242;2022-12-18T11:15:16;6.80;94.50
13148;DHT22;6639;50.956;4.242;2022-12-18T11:17:48;6.50;94.90
13148;DHT22;6639;50.956;4.242;2022-12-18T11:20:24;6.40;95.00
13148;DHT22;6639;50.956;4.242;2022-12-18T11:22:58;6.50;95.40
13148;DHT22;6639;50.956;4.242;2022-12-18T11:25:27;6.30;95.20
13148;DHT22;6639;50.956;4.242;2022-12-18T11:27:56;6.60;95.30
13148;DHT22;6639;50.956;4.242;2022-12-18T11:30:26;6.90;95.20
13148;DHT22;6639;50.956;4.242;2022-12-18T11:32:55;7.10;94.50
13148;DHT22;6639;50.956;4.242;2022-12-18T11:35:30;7.20;94.70
13148;DHT22;6639;50.956;4.242;2022-12-18T11:38:04;7.20;95.40
13148;DHT22;6639;50.956;4.242;2022-12-18T11:40:36;7.40;94.80
13148;DHT22;6639;50.956;4.242;2022-12-18T11:43:09;7.40;95.20
13148;DHT22;6639;50.956;4.242;2022-12-18T11:45:41;7.90;94.80
13148;DHT22;6639;50.956;4.242;2022-12-18T11:48:17;7.70;94.80
13148;DHT22;6639;50.956;4.242;2022-12-18T11:50:49;7.70;95.00
13148;DHT22;6639;50.956;4.242;2022-12-18T11:53:17;7.90;95.20
13148;DHT22;6639;50.956;4.242;2022-12-18T11:55:54;8.10;95.00
13148;DHT22;6639;50.956;4.242;2022-12-18T11:58:37;8.10;94.80
13148;DHT22;6639;50.956;4.242;2022-12-18T12:01:23;7.90;94.70
13148;DHT22;6639;50.956;4.242;2022-12-18T12:04:23;7.70;95.50
13148;DHT22;6639;50.956;4.242;2022-12-18T12:07:04;7.80;95.50
13148;DHT22;6639;50.956;4.242;2022-12-18T12:09:43;8.00;95.50
13148;DHT22;6639;50.956;4.242;2022-12-18T12:12:27;8.20;94.70
13148;DHT22;6639;50.956;4.242;2022-12-18T12:15:20;8.20;94.30
13148;DHT22;6639;50.956;4.242;2022-12-18T12:17:55;7.90;93.10
13148;DHT22;6639;50.956;4.242;2022-12-18T12:20:32;7.80;93.90
13148;DHT22;6639;50.956;4.242;2022-12-18T12:23:08;7.80;93.00
13148;DHT22;6639;50.956;4.242;2022-12-18T12:25:43;8.00;93.00
13148;DHT22;6639;50.956;4.242;2022-12-18T12:28:22;7.80;92.10
13148;DHT22;6639;50.956;4.242;2022-12-18T12:31:00;7.90;92.40
13148;DHT22;6639;50.956;4.242;2022-12-18T12:33:38;7.70;92.90
13148;DHT22;6639;50.956;4.242;2022-12-18T12:36:13;7.30;92.40
13148;DHT22;6639;50.956;4.242;2022-12-18T12:38:47;7.50;92.90
13148;DHT22;6639;50.956;4.242;2022-12-18T12:41:18;7.40;92.40
13148;DHT22;6639;50.956;4.242;2022-12-18T12:44:08;7.50;92.30
13148;DHT22;6639;50.956;4.242;2022-12-18T12:46:41;7.30;93.10
13148;DHT22;6639;50.956;4.242;2022-12-18T12:49:13;7.50;93.50
13148;DHT22;6639;50.956;4.242;2022-12-18T12:51:43;6.90;91.80
13148;DHT22;6639;50.956;4.242;2022-12-18T12:54:16;6.30;93.30
13148;DHT22;6639;50.956;4.242;2022-12-18T12:56:48;6.60;93.90
13148;DHT22;6639;50.956;4.242;2022-12-18T12:59:23;7.00;92.80
13148;DHT22;6639;50.956;4.242;2022-12-18T13:01:59;7.50;92.90
13148;DHT22;6639;50.956;4.242;2022-12-18T13:04:36;7.80;92.80
13148;DHT22;6639;50.956;4.242;2022-12-18T13:07:14;7.80;92.70
13148;DHT22;6639;50.956;4.242;2022-12-18T13:12:52;7.80;92.90
13148;DHT22;6639;50.956;4.242;2022-12-18T13:15:25;7.40;92.90
13148;DHT22;6639;50.956;4.242;2022-12-18T13:18:15;7.40;92.90
13148;DHT22;6639;50.956;4.242;2022-12-18T13:20:43;6.80;92.90
13148;DHT22;6639;50.956;4.242;2022-12-18T13:23:35;7.30;93.30
13148;DHT22;6639;50.956;4.242;2022-12-18T13:26:35;7.80;93.40
13148;DHT22;6639;50.956;4.242;2022-12-18T13:29:02;7.30;92.70
13148;DHT22;6639;50.956;4.242;2022-12-18T13:34:36;7.50;93.20
13148;DHT22;6639;50.956;4.242;2022-12-18T13:37:43;7.40;92.00
13148;DHT22;6639;50.956;4.242;2022-12-18T13:40:53;7.00;93.10
13148;DHT22;6639;50.956;4.242;2022-12-18T13:43:37;6.90;93.70
13148;DHT22;6639;50.956;4.242;2022-12-18T13:46:18;6.70;93.70
13148;DHT22;6639;50.956;4.242;2022-12-18T13:48:52;7.00;93.80
13148;DHT22;6639;50.956;4.242;2022-12-18T13:51:22;6.90;93.30
13148;DHT22;6639;50.956;4.242;2022-12-18T13:53:51;6.80;94.00
13148;DHT22;6639;50.956;4.242;2022-12-18T13:56:22;6.30;93.80
13148;DHT22;6639;50.956;4.242;2022-12-18T13:59:17;6.00;94.40
13148;DHT22;6639;50.956;4.242;2022-12-18T14:01:46;5.50;94.70
13148;DHT22;6639;50.956;4.242;2022-12-18T14:04:21;5.40;95.50
13148;DHT22;6639;50.956;4.242;2022-12-18T14:06:52;5.40;95.50
13148;DHT22;6639;50.956;4.242;2022-12-18T14:09:25;5.20;95.50
13148;DHT22;6639;50.956;4.242;2022-12-18T14:11:53;5.60;96.10
13148;DHT22;6639;50.956;4.242;2022-12-18T14:14:43;5.80;96.40
13148;DHT22;6639;50.956;4.242;2022-12-18T14:17:11;5.80;95.90
13148;DHT22;6639;50.956;4.242;2022-12-18T14:19:42;5.90;95.80
13148;DHT22;6639;50.956;4.242;2022-12-18T14:22:15;6.20;95.60
13148;DHT22;6639;50.956;4.242;2022-12-18T14:24:42;6.30;95.30
13148;DHT22;6639;50.956;4.242;2022-12-18T14:27:20;6.50;95.30
13148;DHT22;6639;50.956;4.242;2022-12-18T14:29:47;6.60;94.80
13148;DHT22;6639;50.956;4.242;2022-12-18T14:32:15;6.20;95.20
13148;DHT22;6639;50.956;4.242;2022-12-18T14:34:43;6.10;95.30
13148;DHT22;6639;50.956;4.242;2022-12-18T14:37:10;6.30;95.50
13148;DHT22;6639;50.956;4.242;2022-12-18T14:39:39;6.10;95.20
13148;DHT22;6639;50.956;4.242;2022-12-18T14:42:09;6.40;94.90
13148;DHT22;6639;50.956;4.242;2022-12-18T14:44:36;5.70;95.10
13148;DHT22;6639;50.956;4.242;2022-12-18T14:47:03;5.90;95.30
13148;DHT22;6639;50.956;4.242;2022-12-18T14:49:32;6.40;95.40
13148;DHT22;6639;50.956;4.242;2022-12-18T14:52:00;6.30;94.70
13148;DHT22;6639;50.956;4.242;2022-12-18T14:54:29;6.40;95.10
13148;DHT22;6639;50.956;4.242;2022-12-18T14:57:00;6.80;94.60
13148;DHT22;6639;50.956;4.242;2022-12-18T14:59:28;6.80;94.00
13148;DHT22;6639;50.956;4.242;2022-12-18T15:02:02;6.60;94.40
13148;DHT22;6639;50.956;4.242;2022-12-18T15:04:32;6.50;94.40
13148;DHT22;6639;50.956;4.242;2022-12-18T15:07:13;6.50;94.40
13148;DHT22;6639;50.956;4.242;2022-12-18T15:09:43;6.60;95.00
13148;DHT22;6639;50.956;4.242;2022-12-18T15:12:24;6.60;94.10
13148;DHT22;6639;50.956;4.242;2022-12-18T15:14:52;6.30;94.90
13148;DHT22;6639;50.956;4.242;2022-12-18T15:17:21;6.20;94.50
13148;DHT22;6639;50.956;4.242;2022-12-18T15:19:51;6.60;94.80
13148;DHT22;6639;50.956;4.242;2022-12-18T15:22:25;6.80;94.50
13148;DHT22;6639;50.956;4.242;2022-12-18T15:24:52;6.70;94.10
13148;DHT22;6639;50.956;4.242;2022-12-18T15:27:30;6.60;94.10
13148;DHT22;6639;50.956;4.242;2022-12-18T15:30:18;6.80;93.80
13148;DHT22;6639;50.956;4.242;2022-12-18T15:32:46;6.80;93.60
13148;DHT22;6639;50.956;4.242;2022-12-18T15:35:15;6.90;93.60
13148;DHT22;6639;50.956;4.242;2022-12-18T15:37:42;7.30;93.40
13148;DHT22;6639;50.956;4.242;2022-12-18T15:40:12;7.10;92.70
13148;DHT22;6639;50.956;4.242;2022-12-18T15:42:42;7.00;93.00
13148;DHT22;6639;50.956;4.242;2022-12-18T15:45:26;7.50;93.00
13148;DHT22;6639;50.956;4.242;2022-12-18T15:47:53;7.10;92.90
13148;DHT22;6639;50.956;4.242;2022-12-18T15:50:20;7.30;92.80
13148;DHT22;6639;50.956;4.242;2022-12-18T15:52:49;6.80;92.50
13148;DHT22;6639;50.956;4.242;2022-12-18T15:55:19;6.60;93.30
13148;DHT22;6639;50.956;4.242;2022-12-18T15:58:06;6.60;93.00
13148;DHT22;6639;50.956;4.242;2022-12-18T16:00:34;6.70;93.10
13148;DHT22;6639;50.956;4.242;2022-12-18T16:03:01;6.80;93.60
13148;DHT22;6639;50.956;4.242;2022-12-18T16:05:28;6.50;93.30
13148;DHT22;6639;50.956;4.242;2022-12-18T16:07:55;6.30;93.10
13148;DHT22;6639;50.956;4.242;2022-12-18T16:10:22;6.90;93.10
13148;DHT22;6639;50.956;4.242;2022-12-18T16:12:50;7.20;93.10
13148;DHT22;6639;50.956;4.242;2022-12-18T16:15:18;7.70;92.20
13148;DHT22;6639;50.956;4.242;2022-12-18T16:17:46;7.80;92.10
13148;DHT22;6639;50.956;4.242;2022-12-18T16:20:14;7.70;92.00
13148;DHT22;6639;50.956;4.242;2022-12-18T16:22:42;7.80;92.10
13148;DHT22;6639;50.956;4.242;2022-12-18T16:25:18;7.60;91.90
13148;DHT22;6639;50.956;4.242;2022-12-18T16:27:50;7.90;92.40
13148;DHT22;6639;50.956;4.242;2022-12-18T16:30:20;7.90;91.70
13148;DHT22;6639;50.956;4.242;2022-12-18T16:32:47;7.90;91.80